createdAt,value
2018-09-21T00:00:30.976Z,62.71
2018-09-21T00:01:30.714Z,62.71
2018-09-21T00:02:30.967Z,61.94
2018-09-21T00:03:30.960Z,62.13
2018-09-21T00:04:30.959Z,61.37
2018-09-21T00:05:30.957Z,62.42
2018-09-21T00:06:31.060Z,63.38
2018-09-21T00:07:30.946Z,63.09
2018-09-21T00:08:30.944Z,62.62
2018-09-21T00:09:30.942Z,62.52
2018-09-21T00:10:30.681Z,62.52
2018-09-21T00:11:30.942Z,62.62
2018-09-21T00:12:30.671Z,62.01
2018-09-21T00:13:30.669Z,61.75
2018-09-21T00:14:30.923Z,61.72
2018-09-21T00:15:30.924Z,60
2018-09-21T00:16:30.911Z,60.28
2018-09-21T00:17:30.909Z,60.28
2018-09-21T00:18:30.647Z,60.09
2018-09-21T00:19:30.900Z,59.42
2018-09-21T00:20:30.898Z,58.56
2018-09-21T00:21:30.896Z,58.46
2018-09-21T00:22:30.889Z,57.6
2018-09-21T00:23:30.885Z,57.31
2018-09-21T00:24:30.623Z,57.03
2018-09-21T00:25:30.877Z,56.64
2018-09-21T00:26:30.872Z,56.26
2018-09-21T00:27:30.874Z,56.35
2018-09-21T00:28:30.872Z,56.83
2018-09-21T00:29:30.856Z,55.78
2018-09-21T00:30:30.856Z,55.68
2018-09-21T00:31:30.849Z,55.08
2018-09-21T00:32:30.849Z,53.96
2018-09-21T00:33:30.850Z,54.05
2018-09-21T00:34:30.837Z,53.86
2018-09-21T00:35:30.835Z,52.81
2018-09-21T00:36:30.829Z,53.38
2018-09-21T00:37:30.827Z,52.59
2018-09-21T00:38:30.821Z,52.2
2018-09-21T00:39:30.818Z,51.73
2018-09-21T00:40:30.812Z,52.14
2018-09-21T00:41:30.553Z,51.95
2018-09-21T00:42:30.813Z,52.11
2018-09-21T00:43:30.803Z,52.01
2018-09-21T00:44:30.794Z,51.82
2018-09-21T00:45:30.796Z,52.62
2018-09-21T00:46:30.794Z,52.81
2018-09-21T00:47:30.784Z,52.33
2018-09-21T00:48:30.778Z,53.09
2018-09-21T00:49:30.519Z,53.96
2018-09-21T00:50:30.775Z,54.91
2018-09-21T00:51:30.762Z,55.11
2018-09-21T00:52:30.762Z,55.4
2018-09-21T00:53:30.757Z,55.97
2018-09-21T00:54:30.755Z,56.93
2018-09-21T00:55:30.749Z,56.16
2018-09-21T00:56:30.486Z,55.21
2018-09-21T00:57:30.740Z,55.3
2018-09-21T00:58:30.478Z,56.07
2018-09-21T00:59:30.730Z,55.97
2018-09-21T01:00:30.728Z,55.87
2018-09-21T01:01:30.720Z,56.26
2018-09-21T01:02:30.459Z,56.07
2018-09-21T01:03:30.714Z,56.35
2018-09-21T01:04:30.709Z,55.78
2018-09-21T01:05:30.705Z,55.49
2018-09-21T01:06:30.443Z,55.97
2018-09-21T01:07:30.697Z,56.45
2018-09-21T01:08:30.697Z,56.74
2018-09-21T01:09:30.688Z,57.41
2018-09-21T01:10:30.687Z,57.98
2018-09-21T01:11:30.422Z,57.5
2018-09-21T01:12:30.672Z,57.21
2018-09-21T01:13:30.411Z,56.64
2018-09-21T01:14:30.663Z,56.64
2018-09-21T01:15:30.661Z,56.35
2018-09-21T01:16:30.656Z,55.97
2018-09-21T01:17:30.649Z,56.07
2018-09-21T01:18:30.647Z,56.07
2018-09-21T01:19:30.386Z,55.21
2018-09-21T01:20:30.639Z,55.97
2018-09-21T01:21:30.635Z,55.49
2018-09-21T01:22:30.376Z,56.07
2018-09-21T01:23:30.626Z,56.16
2018-09-21T01:24:30.632Z,55.78
2018-09-21T01:25:30.360Z,55.87
2018-09-21T01:26:30.615Z,55.97
2018-09-21T01:27:30.607Z,56.07
2018-09-21T01:28:30.601Z,56.35
2018-09-21T01:29:30.605Z,56.26
2018-09-21T01:30:30.339Z,56.26
2018-09-21T01:31:30.591Z,56.45
2018-09-21T01:32:30.588Z,55.97
2018-09-21T01:33:30.583Z,55.49
2018-09-21T01:34:30.580Z,55.3
2018-09-21T01:35:30.575Z,55.3
2018-09-21T01:36:30.570Z,55.11
2018-09-21T01:37:30.565Z,55.87
2018-09-21T01:38:30.561Z,55.78
2018-09-21T01:39:30.556Z,56.26
2018-09-21T01:40:30.297Z,56.45
2018-09-21T01:41:30.549Z,56.35
2018-09-21T01:42:30.285Z,56.93
2018-09-21T01:43:30.538Z,56.45
2018-09-21T01:44:30.534Z,55.97
2018-09-21T01:45:30.273Z,55.97
2018-09-21T01:46:30.271Z,55.4
2018-09-21T01:47:30.526Z,55.36
2018-09-21T01:48:30.261Z,53.67
2018-09-21T01:49:30.512Z,54.41
2018-09-21T01:50:30.636Z,55.36
2018-09-21T01:51:30.509Z,55.46
2018-09-21T01:52:30.504Z,55.18
2018-09-21T01:53:30.498Z,55.49
2018-09-21T01:54:30.231Z,55.27
2018-09-21T01:55:30.487Z,54.12
2018-09-21T01:56:30.225Z,55.49
2018-09-21T01:57:30.475Z,56.45
2018-09-21T01:58:30.476Z,57.12
2018-09-21T01:59:30.210Z,58.46
2018-09-21T02:00:30.469Z,59.13
2018-09-21T02:01:30.463Z,60.09
2018-09-21T02:02:30.198Z,60.09
2018-09-21T02:03:30.193Z,59.71
2018-09-21T02:04:30.445Z,59.9
2018-09-21T02:05:30.441Z,60.47
2018-09-21T02:06:30.435Z,60.28
2018-09-21T02:07:30.432Z,59.8
2018-09-21T02:08:30.428Z,60.28
2018-09-21T02:09:30.523Z,59.52
2018-09-21T02:10:30.421Z,59.13
2018-09-21T02:11:30.157Z,59.52
2018-09-21T02:12:30.411Z,58.75
2018-09-21T02:13:30.405Z,58.75
2018-09-21T02:14:30.403Z,58.27
2018-09-21T02:15:30.398Z,58.17
2018-09-21T02:16:30.392Z,57.6
2018-09-21T02:17:30.160Z,57.12
2018-09-21T02:18:30.383Z,57.21
2018-09-21T02:19:30.380Z,57.79
2018-09-21T02:20:30.376Z,57.98
2018-09-21T02:21:30.370Z,57.98
2018-09-21T02:22:30.108Z,57.98
2018-09-21T02:23:30.361Z,57.98
2018-09-21T02:24:30.369Z,58.27
2018-09-21T02:25:30.358Z,58.75
2018-09-21T02:26:30.349Z,58.27
2018-09-21T02:27:30.345Z,58.46
2018-09-21T02:28:30.337Z,58.08
2018-09-21T02:29:30.333Z,58.37
2018-09-21T02:30:30.332Z,57.5
2018-09-21T02:31:30.326Z,57.89
2018-09-21T02:32:30.323Z,58.17
2018-09-21T02:33:30.318Z,58.05
2018-09-21T02:34:30.057Z,58.37
2018-09-21T02:35:30.328Z,58.65
2018-09-21T02:36:30.312Z,58.37
2018-09-21T02:37:30.301Z,56.54
2018-09-21T02:38:30.294Z,57.31
2018-09-21T02:39:30.040Z,56.93
2018-09-21T02:40:30.294Z,55.87
2018-09-21T02:41:30.555Z,57.89
2018-09-21T02:42:30.021Z,58.75
2018-09-21T02:43:30.271Z,60.28
2018-09-21T02:44:30.275Z,60.67
2018-09-21T02:45:30.267Z,61.34
2018-09-21T02:46:30.259Z,61.72
2018-09-21T02:47:30.259Z,61.34
2018-09-21T02:48:30.246Z,62.1
2018-09-21T02:49:30.243Z,63.06
2018-09-21T02:50:30.242Z,63.06
2018-09-21T02:51:30.241Z,62.59
2018-09-21T02:52:30.237Z,61.53
2018-09-21T02:53:30.231Z,61.53
2018-09-21T02:54:30.225Z,61.53
2018-09-21T02:55:30.222Z,60.67
2018-09-21T02:56:30.214Z,60.67
2018-09-21T02:57:29.953Z,60.67
2018-09-21T02:58:30.208Z,60.28
2018-09-21T03:01:21.627Z,59.8
2018-09-21T03:02:21.623Z,59.71
2018-09-21T03:03:21.628Z,58.84
2018-09-21T03:04:21.634Z,58.84
2018-09-21T03:05:21.630Z,58.37
2018-09-21T03:06:21.605Z,59.52
2018-09-21T03:07:21.598Z,59.61
2018-09-21T03:08:21.340Z,59.23
2018-09-21T03:09:21.593Z,60.19
2018-09-21T03:10:21.586Z,60.28
2018-09-21T03:11:21.585Z,60.57
2018-09-21T03:12:21.577Z,58.27
2018-09-21T03:13:21.365Z,60.57
2018-09-21T03:14:21.569Z,61.43
2018-09-21T03:15:21.564Z,61.05
2018-09-21T03:16:21.563Z,60.76
2018-09-21T03:17:21.297Z,60.86
2018-09-21T03:18:21.550Z,60.76
2018-09-21T03:19:21.550Z,60.86
2018-09-21T03:20:21.543Z,61.43
2018-09-21T03:21:21.279Z,60.96
2018-09-21T03:22:21.534Z,61.05
2018-09-21T03:23:21.526Z,60.19
2018-09-21T03:24:21.526Z,60.86
2018-09-21T03:25:21.525Z,60.86
2018-09-21T03:26:21.516Z,61.34
2018-09-21T03:27:21.515Z,62.49
2018-09-21T03:28:21.510Z,62.42
2018-09-21T03:29:21.247Z,61.91
2018-09-21T03:30:21.507Z,62.59
2018-09-21T03:31:21.496Z,62.2
2018-09-21T03:32:21.501Z,63.06
2018-09-21T03:33:21.485Z,63.73
2018-09-21T03:34:21.484Z,64.59
2018-09-21T03:35:21.623Z,64.34
2018-09-21T03:36:21.469Z,64.5
2018-09-21T03:37:21.469Z,64.59
2018-09-21T03:38:21.207Z,64.69
2018-09-21T03:39:21.457Z,64.5
2018-09-21T03:40:21.458Z,63.73
2018-09-21T03:41:21.449Z,65.08
2018-09-21T03:42:21.453Z,64.69
2018-09-21T03:43:21.439Z,65.46
2018-09-21T03:44:21.442Z,65.75
2018-09-21T03:45:21.430Z,66.22
2018-09-21T03:46:21.432Z,66.32
2018-09-21T03:47:21.430Z,66.32
2018-09-21T03:48:21.164Z,66.32
2018-09-21T03:49:21.421Z,65.17
2018-09-21T03:50:21.411Z,65.75
2018-09-21T03:51:21.408Z,66.42
2018-09-21T03:52:21.407Z,66.32
2018-09-21T03:53:21.140Z,66.13
2018-09-21T03:54:21.395Z,64.79
2018-09-21T03:55:21.392Z,64.59
2018-09-21T03:56:21.392Z,63.73
2018-09-21T03:57:21.387Z,63.73
2018-09-21T03:58:21.378Z,64.5
2018-09-21T03:59:21.383Z,65.46
2018-09-21T04:00:21.368Z,65.65
2018-09-21T04:01:21.366Z,65.65
2018-09-21T04:02:21.357Z,65.17
2018-09-21T04:03:21.354Z,65.26
2018-09-21T04:04:21.354Z,64.89
2018-09-21T04:05:21.347Z,64.5
2018-09-21T04:06:21.342Z,65.26
2018-09-21T04:07:21.334Z,65.46
2018-09-21T04:08:21.331Z,64.89
2018-09-21T04:09:21.329Z,64.89
2018-09-21T04:10:21.328Z,65.36
2018-09-21T04:11:21.321Z,65.65
2018-09-21T04:12:21.317Z,65.65
2018-09-21T04:13:21.307Z,65.94
2018-09-21T04:14:21.304Z,65.26
2018-09-21T04:15:21.299Z,62.01
2018-09-21T04:16:21.298Z,63.26
2018-09-21T04:17:21.294Z,64.31
2018-09-21T04:18:21.291Z,64.69
2018-09-21T04:19:21.283Z,64.69
2018-09-21T04:20:21.023Z,64.98
2018-09-21T04:21:21.283Z,61.24
2018-09-21T04:22:21.015Z,62.96
2018-09-21T04:23:21.267Z,63.06
2018-09-21T04:24:21.263Z,63.06
2018-09-21T04:25:21.264Z,62.87
2018-09-21T04:26:21.252Z,62.87
2018-09-21T04:27:21.256Z,62.2
2018-09-21T04:28:21.245Z,62.17
2018-09-21T04:29:20.985Z,61.6
2018-09-21T04:30:21.233Z,61.4
2018-09-21T04:31:21.230Z,60.64
2018-09-21T04:32:20.976Z,60.64
2018-09-21T04:33:21.227Z,61.11
2018-09-21T04:34:21.255Z,62.17
2018-09-21T04:35:21.214Z,62.46
2018-09-21T04:36:21.208Z,63.03
2018-09-21T04:37:20.943Z,62.93
2018-09-21T04:38:21.199Z,61.31
2018-09-21T04:39:21.194Z,62.07
2018-09-21T04:40:21.186Z,63.26
2018-09-21T04:41:21.181Z,64.37
2018-09-21T04:42:21.180Z,64.85
2018-09-21T04:43:21.174Z,64.18
2018-09-21T04:44:21.169Z,64.28
2018-09-21T04:45:20.911Z,61.24
2018-09-21T04:46:21.163Z,62.55
2018-09-21T04:47:21.159Z,63.99
2018-09-21T04:48:20.894Z,64.18
2018-09-21T04:49:21.146Z,63.7
2018-09-21T04:50:21.143Z,64.85
2018-09-21T04:51:21.139Z,65.14
2018-09-21T04:52:21.272Z,65.23
2018-09-21T04:53:21.128Z,65.52
2018-09-21T04:54:20.868Z,66.19
2018-09-21T04:55:21.117Z,65.14
2018-09-21T04:56:20.859Z,63.89
2018-09-21T04:57:21.107Z,65.08
2018-09-21T04:58:21.110Z,66.8
2018-09-21T04:59:21.103Z,67.76
2018-09-21T05:00:21.098Z,67.66
2018-09-21T05:01:21.090Z,67.66
2018-09-21T05:02:21.090Z,66.8
2018-09-21T05:03:21.086Z,64.79
2018-09-21T05:04:21.078Z,66.19
2018-09-21T05:05:21.078Z,66.71
2018-09-21T05:06:21.110Z,67.28
2018-09-21T05:07:21.063Z,67.54
2018-09-21T05:08:20.803Z,68.24
2018-09-21T05:09:21.056Z,67.66
2018-09-21T05:10:21.050Z,67.66
2018-09-21T05:11:21.047Z,67.63
2018-09-21T05:12:21.043Z,67.91
2018-09-21T05:13:21.035Z,68.52
2018-09-21T05:14:21.036Z,68.33
2018-09-21T05:15:21.039Z,69.1
2018-09-21T05:16:21.025Z,70.35
2018-09-21T05:17:20.763Z,69.01
2018-09-21T05:18:21.013Z,70.15
2018-09-21T05:19:20.753Z,70.92
2018-09-21T05:20:21.004Z,71.98
2018-09-21T05:21:20.746Z,72.36
2018-09-21T05:22:20.995Z,72.55
2018-09-21T05:23:20.993Z,72.36
2018-09-21T05:24:21.028Z,73.03
2018-09-21T05:25:20.983Z,73.32
2018-09-21T05:26:20.987Z,70.92
2018-09-21T05:27:20.974Z,72.84
2018-09-21T05:28:20.966Z,73.51
2018-09-21T05:29:20.964Z,73.99
2018-09-21T05:30:20.963Z,73.16
2018-09-21T05:31:20.963Z,73.22
2018-09-21T05:32:20.957Z,72.84
2018-09-21T05:33:20.700Z,74.08
2018-09-21T05:34:20.779Z,74.31
2018-09-21T05:35:20.682Z,75.75
2018-09-21T05:36:20.934Z,76.32
2018-09-21T05:37:20.931Z,76.42
2018-09-21T05:38:20.927Z,76.52
2018-09-21T05:39:20.972Z,76.23
2018-09-21T05:40:20.916Z,76.04
2018-09-21T05:41:20.916Z,77.48
2018-09-21T05:42:20.910Z,77.58
2018-09-21T05:43:20.654Z,78.05
2018-09-21T05:44:20.903Z,77.48
2018-09-21T05:45:20.898Z,77.23
2018-09-21T05:46:20.893Z,77.33
2018-09-21T05:47:20.895Z,78.09
2018-09-21T05:48:20.880Z,77.33
2018-09-21T05:49:20.888Z,77.9
2018-09-21T05:50:20.625Z,78.19
2018-09-21T05:51:20.869Z,78.96
2018-09-21T05:52:20.867Z,79.91
2018-09-21T05:53:20.862Z,77.8
2018-09-21T05:54:20.858Z,79.63
2018-09-21T05:55:20.855Z,79.82
2018-09-21T05:56:20.919Z,79.91
2018-09-21T05:57:20.847Z,80.97
2018-09-21T05:58:20.841Z,80.49
2018-09-21T05:59:20.841Z,78.96
2018-09-21T06:00:20.838Z,78.8
2018-09-21T06:01:20.836Z,79.96
2018-09-21T06:02:20.946Z,80.91
2018-09-21T06:03:20.823Z,80.97
2018-09-21T06:04:20.826Z,79.57
2018-09-21T06:05:20.818Z,80.73
2018-09-21T06:06:20.816Z,80.53
2018-09-21T06:07:20.809Z,80.24
2018-09-21T06:08:20.811Z,79.96
2018-09-21T06:09:20.799Z,80.53
2018-09-21T06:10:20.798Z,81.3
2018-09-21T06:11:20.797Z,79.86
2018-09-21T06:12:20.787Z,79.47
2018-09-21T06:13:20.796Z,80.63
2018-09-21T06:14:20.794Z,81.78
2018-09-21T06:15:20.775Z,83.31
2018-09-21T06:16:20.775Z,83.6
2018-09-21T06:17:20.768Z,83.7
2018-09-21T06:18:20.772Z,84.08
2018-09-21T06:19:20.819Z,83.22
2018-09-21T06:20:20.763Z,83.8
2018-09-21T06:21:20.499Z,85.04
2018-09-21T06:22:20.755Z,85.62
2018-09-21T06:23:20.747Z,86.29
2018-09-21T06:24:20.743Z,85.14
2018-09-21T06:25:20.485Z,86
2018-09-21T06:26:20.739Z,86.77
2018-09-21T06:27:20.733Z,86.72
2018-09-21T06:28:20.736Z,83.84
2018-09-21T06:29:20.728Z,86.05
2018-09-21T06:30:20.724Z,86.43
2018-09-21T06:31:20.720Z,87.19
2018-09-21T06:32:20.719Z,87.96
2018-09-21T06:33:20.458Z,86.91
2018-09-21T06:34:20.711Z,86.52
2018-09-21T06:35:20.710Z,88.54
2018-09-21T06:36:20.705Z,88.73
2018-09-21T06:37:20.447Z,88.64
2018-09-21T06:38:20.696Z,88.25
2018-09-21T06:39:20.702Z,88.54
2018-09-21T06:40:20.694Z,89.69
2018-09-21T06:41:20.693Z,92.52
2018-09-21T06:42:20.429Z,92.96
2018-09-21T06:43:20.685Z,92.62
2018-09-21T06:44:20.689Z,92.43
2018-09-21T06:45:20.674Z,93.49
2018-09-21T06:46:20.673Z,91.37
2018-09-21T06:47:20.740Z,93.68
2018-09-21T06:48:20.667Z,94.64
2018-09-21T06:49:20.666Z,96.37
2018-09-21T06:50:20.406Z,96.27
2018-09-21T06:51:20.657Z,96.85
2018-09-21T06:52:20.653Z,97.28
2018-09-21T06:53:20.393Z,97.86
2018-09-21T06:54:20.652Z,97.86
2018-09-21T06:55:20.646Z,97.76
2018-09-21T06:56:20.643Z,96.7
2018-09-21T06:57:20.638Z,97.28
2018-09-21T06:58:20.382Z,98.05
2018-09-21T06:59:20.641Z,98.05
2018-09-21T07:00:20.651Z,97.67
2018-09-21T07:01:20.706Z,97.76
2018-09-21T07:02:20.370Z,97.28
2018-09-21T07:03:20.622Z,97.71
2018-09-21T07:04:20.621Z,97.81
2018-09-21T07:05:20.619Z,97.81
2018-09-21T07:06:20.615Z,97.71
2018-09-21T07:07:20.617Z,97.81
2018-09-21T07:08:20.610Z,97.71
2018-09-21T07:09:20.611Z,98.29
2018-09-21T07:10:20.354Z,97.62
2018-09-21T07:11:20.605Z,98.49
2018-09-21T07:12:20.599Z,99.06
2018-09-21T07:13:20.345Z,99.26
2018-09-21T07:14:20.600Z,98.96
2018-09-21T07:15:20.593Z,99.69
2018-09-21T07:16:20.594Z,99.69
2018-09-21T07:17:20.589Z,98.72
2018-09-21T07:18:20.585Z,99.88
2018-09-21T07:19:20.591Z,99.69
2018-09-21T07:20:20.328Z,99.99
2018-09-21T07:21:20.583Z,99.98
2018-09-21T07:22:20.580Z,99.69
2018-09-21T07:23:20.580Z,99.98
2018-09-21T07:24:20.580Z,99.88
2018-09-21T07:25:20.576Z,99.99
2018-09-21T07:26:20.572Z,99.99
2018-09-21T07:27:20.568Z,99.69
2018-09-21T07:28:20.570Z,99.21
2018-09-21T07:29:20.310Z,99.88
2018-09-21T07:30:20.564Z,99.78
2018-09-21T07:31:20.753Z,99.49
2018-09-21T07:32:20.559Z,99.59
2018-09-21T07:33:20.303Z,99.21
2018-09-21T07:34:20.558Z,99.78
2018-09-21T07:35:20.555Z,99.99
2018-09-21T07:36:20.557Z,99.69
2018-09-21T07:37:20.562Z,99.59
2018-09-21T07:38:20.551Z,99.99
2018-09-21T07:39:20.557Z,99.49
2018-09-21T07:40:20.549Z,99.3
2018-09-21T07:41:20.545Z,99.21
2018-09-21T07:42:20.540Z,99.69
2018-09-21T07:43:20.549Z,99.99
2018-09-21T07:44:20.585Z,99.98
2018-09-21T07:45:20.546Z,99.84
2018-09-21T07:46:20.541Z,99.16
2018-09-21T07:47:20.533Z,99.93
2018-09-21T07:48:20.532Z,99.99
2018-09-21T07:49:20.275Z,99.99
2018-09-21T07:50:20.275Z,99.64
2018-09-21T07:51:20.528Z,99.16
2018-09-21T07:52:20.527Z,99.35
2018-09-21T07:53:20.523Z,99.54
2018-09-21T07:54:20.635Z,99.59
2018-09-21T07:55:20.525Z,99.4
2018-09-21T07:56:20.262Z,99.3
2018-09-21T07:57:20.518Z,99.5
2018-09-21T07:58:20.263Z,99.3
2018-09-21T07:59:20.519Z,99.11
2018-09-21T08:00:20.516Z,99.11
2018-09-21T08:01:20.519Z,98.15
2018-09-21T08:02:20.514Z,98.72
2018-09-21T08:03:20.520Z,98.44
2018-09-21T08:04:20.511Z,98.82
2018-09-21T08:05:20.561Z,98.54
2018-09-21T08:06:20.252Z,98.34
2018-09-21T08:07:20.702Z,99.21
2018-09-21T08:08:20.247Z,98.63
2018-09-21T08:09:20.504Z,99.45
2018-09-21T08:10:20.247Z,98.68
2018-09-21T08:11:20.503Z,97.57
2018-09-21T08:12:20.504Z,96.32
2018-09-21T08:13:20.498Z,96.51
2018-09-21T08:14:20.504Z,96.22
2018-09-21T08:15:20.498Z,94.63
2018-09-21T08:16:20.493Z,95.88
2018-09-21T08:17:20.496Z,93.95
2018-09-21T08:18:20.496Z,93.76
2018-09-21T08:19:20.560Z,92.32
2018-09-21T08:20:20.493Z,91.97
2018-09-21T08:21:20.494Z,94.15
2018-09-21T08:22:20.493Z,93.18
2018-09-21T08:23:20.233Z,93.32
2018-09-21T08:24:20.492Z,92.07
2018-09-21T08:25:20.231Z,92.16
2018-09-21T08:26:20.492Z,93.04
2018-09-21T08:27:20.233Z,91.49
2018-09-21T08:28:20.488Z,90.14
2018-09-21T08:29:20.491Z,93.9
2018-09-21T08:30:20.491Z,95.35
2018-09-21T08:31:20.607Z,93.66
2018-09-21T08:32:20.489Z,93.47
2018-09-21T08:33:20.747Z,93.85
2018-09-21T08:34:20.489Z,94.24
2018-09-21T08:35:20.488Z,93.47
2018-09-21T08:36:20.486Z,92.99
2018-09-21T08:37:20.877Z,94.05
2018-09-21T08:38:20.488Z,95.21
2018-09-21T08:39:20.491Z,94.53
2018-09-21T08:40:20.227Z,94.96
2018-09-21T08:41:20.227Z,95.36
2018-09-21T08:42:20.482Z,95.93
2018-09-21T08:43:20.529Z,95.54
2018-09-21T08:44:20.484Z,94.92
2018-09-21T08:45:20.484Z,96.84
2018-09-21T08:46:20.488Z,95.79
2018-09-21T08:47:20.487Z,94.1
2018-09-21T08:48:20.480Z,93.42
2018-09-21T08:49:20.482Z,92.94
2018-09-21T08:50:20.484Z,94.77
2018-09-21T08:51:20.484Z,93.42
2018-09-21T08:52:20.222Z,91.3
2018-09-21T08:53:20.483Z,90.37
2018-09-21T08:54:20.486Z,91.05
2018-09-21T08:55:20.480Z,89.7
2018-09-21T08:56:20.224Z,88.06
2018-09-21T08:57:20.481Z,86.52
2018-09-21T08:58:20.480Z,84.05
2018-09-21T08:59:20.477Z,84.05
2018-09-21T09:00:20.487Z,83.56
2018-09-21T09:01:20.539Z,83.37
2018-09-21T09:02:20.483Z,83.18
2018-09-21T09:03:20.552Z,82.11
2018-09-21T09:04:20.483Z,81.24
2018-09-21T09:05:20.224Z,82.69
2018-09-21T09:06:20.480Z,79.93
2018-09-21T09:07:20.487Z,79.74
2018-09-21T09:08:20.481Z,79.25
2018-09-21T09:09:20.486Z,79.25
2018-09-21T09:10:20.492Z,82.15
2018-09-21T09:11:20.486Z,80.22
2018-09-21T09:12:20.489Z,78.58
2018-09-21T09:13:20.491Z,76.2
2018-09-21T09:14:20.489Z,78.33
2018-09-21T09:15:20.490Z,71.56
2018-09-21T09:16:20.544Z,71.46
2018-09-21T09:17:20.235Z,72.75
2018-09-21T09:18:20.232Z,77.2
2018-09-21T09:19:20.240Z,73.14
2018-09-21T09:20:20.237Z,70.66
2018-09-21T09:21:20.496Z,68.05
2018-09-21T09:22:20.495Z,65.63
2018-09-21T09:23:20.624Z,70.66
2018-09-21T09:24:20.502Z,76.43
2018-09-21T09:25:20.508Z,71.2
2018-09-21T09:26:20.501Z,69.08
2018-09-21T09:27:20.505Z,67.24
2018-09-21T09:28:20.508Z,70.43
2018-09-21T09:29:20.249Z,69.66
2018-09-21T09:30:20.257Z,66.27
2018-09-21T09:31:20.510Z,64.82
2018-09-21T09:32:20.512Z,67.91
2018-09-21T09:33:20.513Z,67.91
2018-09-21T09:34:20.255Z,68.49
2018-09-21T09:35:20.513Z,74.36
2018-09-21T09:36:20.262Z,75.04
2018-09-21T09:37:20.523Z,73.14
2018-09-21T09:38:20.523Z,67.53
2018-09-21T09:39:20.264Z,64.43
2018-09-21T09:40:20.265Z,63.66
2018-09-21T09:41:20.529Z,63.95
2018-09-21T09:42:20.269Z,65.05
2018-09-21T09:43:20.711Z,62.53
2018-09-21T09:44:20.531Z,61.69
2018-09-21T09:45:20.531Z,60.62
2018-09-21T09:46:20.534Z,55.1
2018-09-21T09:47:20.540Z,55.78
2018-09-21T09:48:20.600Z,54.74
2018-09-21T09:49:20.348Z,54.74
2018-09-21T09:50:20.545Z,55.22
2018-09-21T09:51:20.543Z,55.71
2018-09-21T09:52:20.547Z,55.52
2018-09-21T09:53:20.550Z,54.84
2018-09-21T09:54:20.551Z,54.16
2018-09-21T09:55:20.559Z,57.14
2018-09-21T09:56:20.555Z,56.07
2018-09-21T09:57:20.558Z,56.85
2018-09-21T09:58:20.557Z,57.62
2018-09-21T09:59:20.559Z,59.17
2018-09-21T10:00:20.564Z,59.07
2018-09-21T10:01:20.570Z,59.07
2018-09-21T10:02:20.569Z,57.71
2018-09-21T10:03:20.579Z,60.62
2018-09-21T10:04:20.575Z,58.3
2018-09-21T10:05:20.325Z,56.87
2018-09-21T10:06:20.322Z,56.87
2018-09-21T10:07:20.582Z,53.67
2018-09-21T10:08:20.585Z,53.77
2018-09-21T10:09:20.589Z,53.77
2018-09-21T10:10:20.680Z,56.1
2018-09-21T10:11:20.591Z,54.45
2018-09-21T10:12:20.602Z,56.2
2018-09-21T10:13:20.596Z,53.31
2018-09-21T10:14:20.600Z,50.99
2018-09-21T10:15:20.343Z,50.99
2018-09-21T10:16:20.645Z,49.92
2018-09-21T10:17:20.354Z,50.79
2018-09-21T10:18:20.612Z,49.92
2018-09-21T10:19:20.613Z,50.12
2018-09-21T10:20:20.624Z,50.79
2018-09-21T10:21:20.614Z,50.79
2018-09-21T10:22:20.621Z,50.7
2018-09-21T10:23:20.625Z,51.28
2018-09-21T10:24:20.626Z,50.96
2018-09-21T10:25:20.632Z,51.35
2018-09-21T10:26:20.377Z,52.71
2018-09-21T10:27:21.163Z,52.61
2018-09-21T10:28:21.214Z,51.54
2018-09-21T10:29:20.678Z,52.8
2018-09-21T10:30:20.680Z,55.32
2018-09-21T10:31:20.392Z,56.1
2018-09-21T10:32:20.650Z,55.71
2018-09-21T10:33:20.794Z,55.13
2018-09-21T10:34:20.656Z,54.26
2018-09-21T10:35:20.765Z,54.19
2018-09-21T10:36:20.661Z,53.51
2018-09-21T10:37:20.661Z,53.51
2018-09-21T10:38:20.667Z,52.64
2018-09-21T10:39:20.615Z,52.54
2018-09-21T10:40:20.466Z,53.22
2018-09-21T10:41:20.681Z,52.44
2018-09-21T10:42:20.853Z,54.86
2018-09-21T10:43:20.681Z,52.56
2018-09-21T10:44:20.685Z,51.59
2018-09-21T10:45:20.686Z,51.59
2018-09-21T10:46:20.698Z,51.4
2018-09-21T10:47:20.435Z,48.59
2018-09-21T10:48:20.691Z,49.56
2018-09-21T10:49:20.440Z,48.3
2018-09-21T10:50:20.704Z,48.59
2018-09-21T10:51:20.707Z,48.49
2018-09-21T10:52:20.704Z,49.39
2018-09-21T10:53:20.715Z,48.13
2018-09-21T10:54:20.715Z,47.45
2018-09-21T10:55:20.721Z,47.45
2018-09-21T10:56:20.717Z,48.49
2018-09-21T10:57:20.464Z,48.2
2018-09-21T10:58:20.725Z,48.3
2018-09-21T10:59:20.730Z,46.94
2018-09-21T11:00:20.750Z,48.1
2018-09-21T11:01:20.741Z,48.39
2018-09-21T11:02:20.481Z,48.59
2018-09-21T11:03:20.740Z,48.39
2018-09-21T11:04:20.749Z,48.88
2018-09-21T11:05:20.751Z,49.66
2018-09-21T11:06:20.751Z,49.46
2018-09-21T11:07:20.875Z,49.56
2018-09-21T11:08:20.499Z,49.66
2018-09-21T11:09:20.762Z,49.39
2018-09-21T11:10:20.768Z,48.42
2018-09-21T11:11:20.766Z,47.35
2018-09-21T11:12:20.771Z,45.82
2018-09-21T11:13:20.776Z,48.25
2018-09-21T11:14:20.779Z,47.4
2018-09-21T11:15:20.780Z,46.81
2018-09-21T11:16:20.786Z,44.68
2018-09-21T11:17:20.532Z,46.52
2018-09-21T11:18:20.534Z,43.44
2018-09-21T11:19:20.540Z,42.27
2018-09-21T11:20:20.802Z,42.08
2018-09-21T11:21:20.547Z,42.56
2018-09-21T11:22:20.805Z,42.76
2018-09-21T11:23:20.816Z,43.63
2018-09-21T11:24:20.815Z,43.05
2018-09-21T11:25:20.824Z,42.49
2018-09-21T11:26:20.827Z,40.83
2018-09-21T11:27:20.827Z,40.44
2018-09-21T11:28:20.574Z,40.25
2018-09-21T11:29:20.837Z,40.15
2018-09-21T11:30:20.846Z,41.03
2018-09-21T11:31:20.846Z,41.42
2018-09-21T11:32:20.849Z,41.49
2018-09-21T11:33:20.849Z,40.81
2018-09-21T11:34:20.854Z,41.59
2018-09-21T11:35:20.866Z,41.39
2018-09-21T11:36:20.607Z,42.76
2018-09-21T11:37:20.867Z,42.97
2018-09-21T11:38:20.874Z,41.78
2018-09-21T11:39:20.875Z,41.3
2018-09-21T11:40:20.887Z,39.94
2018-09-21T11:41:20.626Z,39.36
2018-09-21T11:42:20.635Z,40.42
2018-09-21T11:43:20.638Z,40.6
2018-09-21T11:44:20.899Z,39.92
2018-09-21T11:45:20.645Z,40.79
2018-09-21T11:46:20.909Z,41.74
2018-09-21T11:47:21.345Z,42.33
2018-09-21T11:48:20.914Z,41.36
2018-09-21T11:49:20.918Z,43.4
2018-09-21T11:50:20.922Z,42.69
2018-09-21T11:51:20.927Z,42.3
2018-09-21T11:52:20.925Z,43.57
2018-09-21T11:53:20.932Z,42.5
2018-09-21T11:54:20.933Z,42.3
2018-09-21T11:55:20.940Z,42.3
2018-09-21T11:56:20.944Z,42.89
2018-09-21T11:57:20.947Z,42.5
2018-09-21T11:58:20.697Z,43.57
2018-09-21T11:59:20.949Z,43.27
2018-09-21T12:00:20.960Z,43.57
2018-09-21T12:01:20.961Z,44.34
2018-09-21T12:02:20.708Z,43.47
2018-09-21T12:03:20.713Z,43.47
2018-09-21T12:04:20.972Z,44.42
2018-09-21T12:05:20.978Z,43.16
2018-09-21T12:06:20.977Z,43.54
2018-09-21T12:07:20.989Z,44.64
2018-09-21T12:08:20.986Z,42.99
2018-09-21T12:09:20.990Z,43.66
2018-09-21T12:10:20.997Z,44.13
2018-09-21T12:11:20.995Z,43.74
2018-09-21T12:12:21.005Z,44.23
2018-09-21T12:13:21.005Z,44.24
2018-09-21T12:14:21.008Z,44.54
2018-09-21T12:15:21.010Z,43.37
2018-09-21T12:16:21.024Z,43.35
2018-09-21T12:17:21.017Z,44.44
2018-09-21T12:18:20.766Z,43.18
2018-09-21T12:19:21.025Z,44.44
2018-09-21T12:20:20.773Z,43.18
2018-09-21T12:21:21.030Z,43.18
2018-09-21T12:22:20.777Z,42.99
2018-09-21T12:23:20.781Z,42.99
2018-09-21T12:24:21.046Z,44.44
2018-09-21T12:25:21.045Z,44.32
2018-09-21T12:26:21.048Z,45.41
2018-09-21T12:27:21.054Z,47.42
2018-09-21T12:28:21.055Z,47.52
2018-09-21T12:29:21.061Z,45.97
2018-09-21T12:30:21.250Z,45.2
2018-09-21T12:31:21.066Z,46.07
2018-09-21T12:32:20.810Z,47.42
2018-09-21T12:33:21.078Z,45.97
2018-09-21T12:34:21.075Z,47.03
2018-09-21T12:35:21.080Z,46.55
2018-09-21T12:36:21.195Z,47.13
2018-09-21T12:37:20.827Z,48
2018-09-21T12:38:20.834Z,49.05
2018-09-21T12:39:21.091Z,47.89
2018-09-21T12:40:21.095Z,47.98
2018-09-21T12:41:21.097Z,48.08
2018-09-21T12:42:21.145Z,51.89
2018-09-21T12:43:21.112Z,50.99
2018-09-21T12:44:21.105Z,49.66
2018-09-21T12:45:20.853Z,49.34
2018-09-21T12:46:21.109Z,49.63
2018-09-21T12:47:21.115Z,49.82
2018-09-21T12:48:21.116Z,49.24
2018-09-21T12:49:21.121Z,49.54
2018-09-21T12:50:21.268Z,51.18
2018-09-21T12:51:21.129Z,51.28
2018-09-21T12:52:21.133Z,49.63
2018-09-21T12:53:21.137Z,50.12
2018-09-21T12:54:20.880Z,50.7
2018-09-21T12:55:21.139Z,50.6
2018-09-21T12:56:20.891Z,51.25
2018-09-21T12:57:21.146Z,52.44